createdAt,value
2022-08-27T00:01:44.971Z,23.14
2022-08-27T00:04:12.896Z,23.15
2022-08-27T00:06:40.505Z,23.06
2022-08-27T00:09:08.801Z,22.63
2022-08-27T00:11:36.612Z,22.56
2022-08-27T00:14:04.514Z,22.82
2022-08-27T00:16:32.667Z,22.77
2022-08-27T00:19:00.639Z,22.89
2022-08-27T00:21:28.125Z,22.90
2022-08-27T00:23:55.761Z,22.83
2022-08-27T00:26:23.747Z,22.85
2022-08-27T00:28:51.548Z,22.70
2022-08-27T00:31:19.222Z,22.73
2022-08-27T00:33:51.402Z,22.62
2022-08-27T00:36:18.966Z,22.34
2022-08-27T00:38:46.492Z,22.52
2022-08-27T00:41:15.716Z,22.23
2022-08-27T00:43:50.462Z,22.08
2022-08-27T00:46:25.442Z,21.98
2022-08-27T00:48:55.483Z,22.05
2022-08-27T00:51:24.286Z,22.39
2022-08-27T00:53:52.290Z,22.30
2022-08-27T00:56:23.366Z,22.18
2022-08-27T00:58:53.992Z,22.11
2022-08-27T01:01:28.666Z,21.94
2022-08-27T01:03:59.890Z,21.86
2022-08-27T01:06:32.854Z,22.14
2022-08-27T01:09:10.623Z,21.69
2022-08-27T01:11:38.930Z,21.59
2022-08-27T01:14:07.229Z,21.55
2022-08-27T01:16:40.263Z,21.75
2022-08-27T01:19:11.454Z,21.51
2022-08-27T01:21:59.667Z,21.13
2022-08-27T01:24:35.898Z,21.66
2022-08-27T01:27:05.332Z,22.43
2022-08-27T01:29:36.737Z,21.96
2022-08-27T01:32:11.060Z,22.35
2022-08-27T01:34:38.785Z,22.40
2022-08-27T01:37:08.254Z,22.41
2022-08-27T01:39:37.410Z,22.22
2022-08-27T01:42:11.315Z,22.17
2022-08-27T01:44:47.841Z,22.08
2022-08-27T01:47:17.286Z,22.07
2022-08-27T01:49:44.891Z,21.86
2022-08-27T01:52:13.583Z,21.73
2022-08-27T01:54:42.493Z,22.24
2022-08-27T01:57:10.555Z,21.43
2022-08-27T01:59:39.357Z,21.28
2022-08-27T02:02:09.135Z,21.38
2022-08-27T02:04:37.265Z,21.46
2022-08-27T02:07:05.311Z,21.69
2022-08-27T02:09:33.276Z,21.69
2022-08-27T02:12:01.405Z,21.49
2022-08-27T02:14:29.219Z,21.26
2022-08-27T02:16:57.138Z,21.31
2022-08-27T02:19:24.908Z,21.25
2022-08-27T02:21:53.351Z,21.41
2022-08-27T02:24:20.871Z,21.53
2022-08-27T02:26:49.211Z,21.50
2022-08-27T02:29:16.636Z,21.33
2022-08-27T02:31:44.225Z,20.93
2022-08-27T02:34:30.664Z,21.51
2022-08-27T02:36:58.561Z,21.70
2022-08-27T02:39:26.351Z,21.46
2022-08-27T02:41:55.078Z,21.31
2022-08-27T02:44:22.513Z,20.93
2022-08-27T02:46:50.239Z,21.12
2022-08-27T02:49:21.105Z,21.00
2022-08-27T02:51:48.563Z,20.77
2022-08-27T02:54:17.699Z,21.16
2022-08-27T02:56:45.258Z,21.19
2022-08-27T02:59:12.688Z,21.49
2022-08-27T03:01:40.542Z,21.78
2022-08-27T03:04:08.111Z,21.96
2022-08-27T03:06:35.594Z,21.64
2022-08-27T03:09:04.150Z,21.76
2022-08-27T03:11:32.294Z,21.76
2022-08-27T03:13:59.821Z,22.09
2022-08-27T03:16:27.671Z,21.34
2022-08-27T03:18:55.351Z,21.93
2022-08-27T03:21:26.356Z,21.70
2022-08-27T03:23:54.390Z,22.07
2022-08-27T03:26:22.514Z,22.10
2022-08-27T03:28:50.077Z,21.86
2022-08-27T03:31:26.949Z,21.70
2022-08-27T03:33:57.635Z,21.82
2022-08-27T03:36:27.299Z,21.23
2022-08-27T03:38:54.791Z,21.09
2022-08-27T03:41:23.495Z,21.39
2022-08-27T03:44:12.044Z,21.31
2022-08-27T03:46:50.646Z,20.94
2022-08-27T03:49:20.630Z,21.21
2022-08-27T03:51:51.436Z,21.18
2022-08-27T03:54:19.661Z,21.05
2022-08-27T03:56:47.200Z,20.89
2022-08-27T03:59:15.891Z,21.05
2022-08-27T04:01:45.003Z,21.11
2022-08-27T04:04:13.220Z,20.91
2022-08-27T04:06:41.321Z,21.49
2022-08-27T04:09:08.843Z,21.58
2022-08-27T04:11:36.982Z,21.49
2022-08-27T04:14:13.872Z,21.28
2022-08-27T04:16:52.512Z,21.25
2022-08-27T04:19:22.866Z,20.96
2022-08-27T04:21:53.097Z,21.22
2022-08-27T04:24:20.527Z,20.95
2022-08-27T04:26:48.059Z,20.94
2022-08-27T04:29:16.182Z,20.91
2022-08-27T04:31:43.757Z,20.85
2022-08-27T04:34:11.279Z,20.69
2022-08-27T04:36:39.004Z,20.94
2022-08-27T04:39:06.551Z,20.83
2022-08-27T04:41:34.380Z,20.85
2022-08-27T04:44:09.319Z,20.98
2022-08-27T04:46:37.840Z,20.81
2022-08-27T04:49:10.452Z,20.69
2022-08-27T04:51:40.157Z,20.61
2022-08-27T04:54:08.592Z,20.79
2022-08-27T04:56:37.246Z,21.16
2022-08-27T04:59:06.811Z,21.03
2022-08-27T05:01:34.678Z,21.21
2022-08-27T05:04:02.847Z,21.73
2022-08-27T05:06:30.987Z,22.18
2022-08-27T05:08:58.957Z,22.08
2022-08-27T05:11:32.173Z,21.40
2022-08-27T05:14:05.683Z,21.77
2022-08-27T05:16:34.510Z,22.16
2022-08-27T05:19:04.215Z,22.46
2022-08-27T05:21:34.457Z,22.63
2022-08-27T05:24:04.186Z,22.34
2022-08-27T05:26:33.829Z,22.27
2022-08-27T05:29:02.215Z,22.94
2022-08-27T05:31:30.435Z,22.88
2022-08-27T05:33:57.992Z,22.61
2022-08-27T05:36:31.916Z,23.34
2022-08-27T05:39:01.525Z,23.54
2022-08-27T05:41:34.198Z,23.42
2022-08-27T05:44:24.002Z,22.53
2022-08-27T05:46:53.458Z,22.45
2022-08-27T05:49:21.633Z,22.84
2022-08-27T05:51:49.065Z,23.12
2022-08-27T05:54:19.850Z,23.76
2022-08-27T05:56:51.870Z,23.95
2022-08-27T05:59:38.904Z,23.64
2022-08-27T06:02:07.063Z,24.03
2022-08-27T06:04:35.075Z,24.27
2022-08-27T06:07:02.643Z,24.59
2022-08-27T06:09:30.711Z,24.75
2022-08-27T06:12:01.463Z,24.69
2022-08-27T06:14:29.981Z,24.19
2022-08-27T06:17:00.210Z,23.74
2022-08-27T06:19:27.651Z,24.23
2022-08-27T06:22:00.761Z,24.42
2022-08-27T06:24:41.511Z,24.42
2022-08-27T06:27:12.910Z,24.75
2022-08-27T06:29:41.037Z,24.89
2022-08-27T06:32:09.683Z,24.46
2022-08-27T06:34:37.964Z,25.11
2022-08-27T06:37:06.323Z,25.17
2022-08-27T06:39:33.748Z,25.31
2022-08-27T06:42:01.190Z,25.76
2022-08-27T06:44:32.744Z,25.90
2022-08-27T06:47:00.308Z,25.99
2022-08-27T06:49:27.827Z,25.75
2022-08-27T06:51:55.567Z,26.01
2022-08-27T06:54:23.020Z,25.73
2022-08-27T06:56:50.747Z,26.20
2022-08-27T06:59:19.186Z,26.19
2022-08-27T07:01:52.721Z,26.19
2022-08-27T07:04:22.816Z,26.29
2022-08-27T07:06:59.432Z,26.55
2022-08-27T07:09:27.186Z,26.92
2022-08-27T07:11:55.196Z,26.93
2022-08-27T07:14:22.702Z,27.21
2022-08-27T07:16:51.897Z,27.45
2022-08-27T07:19:20.555Z,27.46
2022-08-27T07:21:50.706Z,27.62
2022-08-27T07:24:19.172Z,27.77
2022-08-27T07:26:47.170Z,27.82
2022-08-27T07:29:16.179Z,28.07
2022-08-27T07:31:43.818Z,28.21
2022-08-27T07:34:11.541Z,28.13
2022-08-27T07:36:39.658Z,28.50
2022-08-27T07:39:08.119Z,28.45
2022-08-27T07:41:58.654Z,28.33
2022-08-27T07:44:28.261Z,28.44
2022-08-27T07:47:02.508Z,29.18
2022-08-27T07:49:31.545Z,29.47
2022-08-27T07:51:59.448Z,30.52
2022-08-27T07:54:26.953Z,31.89
2022-08-27T07:56:55.991Z,33.27
2022-08-27T07:59:26.063Z,34.58
2022-08-27T08:01:55.970Z,35.72
2022-08-27T08:04:24.719Z,36.36
2022-08-27T08:06:54.488Z,36.45
2022-08-27T08:09:24.133Z,37.52
2022-08-27T08:11:52.370Z,38.16
2022-08-27T08:14:20.048Z,38.42
2022-08-27T08:16:48.073Z,38.98
2022-08-27T08:19:15.903Z,39.15
2022-08-27T08:21:43.588Z,39.58
2022-08-27T08:24:11.092Z,38.98
2022-08-27T08:26:40.691Z,39.62
2022-08-27T08:29:08.138Z,39.27
2022-08-27T08:31:43.119Z,39.83
2022-08-27T08:34:14.548Z,39.85
2022-08-27T08:36:51.051Z,38.65
2022-08-27T08:39:23.176Z,38.93
2022-08-27T08:41:54.577Z,37.67
2022-08-27T08:44:26.553Z,37.70
2022-08-27T08:46:58.429Z,37.24
2022-08-27T08:49:53.493Z,37.51
2022-08-27T08:52:41.498Z,37.14
2022-08-27T08:55:40.187Z,34.82
2022-08-27T08:58:10.178Z,35.62
2022-08-27T09:00:39.840Z,35.80
2022-08-27T09:03:07.797Z,35.67
2022-08-27T09:05:37.648Z,35.46
2022-08-27T09:08:33.027Z,35.22
2022-08-27T09:11:17.285Z,34.60
2022-08-27T09:14:01.170Z,35.02
2022-08-27T09:16:28.993Z,35.18
2022-08-27T09:18:56.409Z,35.37
2022-08-27T09:21:42.226Z,34.84
2022-08-27T09:24:32.738Z,34.73
2022-08-27T09:27:00.194Z,34.38
2022-08-27T09:29:29.549Z,34.83
2022-08-27T09:32:05.252Z,34.28
2022-08-27T09:34:43.993Z,34.92
2022-08-27T09:37:16.385Z,34.94
2022-08-27T09:39:53.072Z,34.44
2022-08-27T09:42:27.710Z,34.92
2022-08-27T09:44:56.111Z,34.78
2022-08-27T09:47:24.610Z,33.80
2022-08-27T09:50:09.104Z,34.05
2022-08-27T09:52:51.458Z,33.90
2022-08-27T09:55:44.509Z,34.53
2022-08-27T09:58:44.620Z,35.32
2022-08-27T10:01:26.825Z,35.28
2022-08-27T10:04:04.914Z,35.42
2022-08-27T10:06:32.968Z,34.76
2022-08-27T10:09:30.789Z,35.02
2022-08-27T10:12:14.262Z,35.03
2022-08-27T10:14:46.462Z,34.61
2022-08-27T10:17:19.739Z,34.14
2022-08-27T10:20:08.818Z,35.52
2022-08-27T10:22:59.963Z,35.98
2022-08-27T10:25:46.672Z,35.80
2022-08-27T10:28:26.535Z,35.71
2022-08-27T10:31:31.444Z,34.92
2022-08-27T10:33:59.404Z,35.41
2022-08-27T10:36:36.654Z,35.72
2022-08-27T10:39:22.802Z,35.27
2022-08-27T10:41:57.180Z,34.75
2022-08-27T10:44:40.252Z,34.96
2022-08-27T10:47:10.826Z,36.18
2022-08-27T10:49:50.625Z,35.97
2022-08-27T10:52:42.120Z,35.38
2022-08-27T10:55:34.197Z,36.76
2022-08-27T10:58:29.826Z,35.79
2022-08-27T11:01:28.589Z,35.67
2022-08-27T11:04:14.327Z,36.46
2022-08-27T11:06:45.776Z,35.64
2022-08-27T11:09:18.199Z,35.86
2022-08-27T11:12:13.397Z,36.06
2022-08-27T11:15:04.142Z,34.68
2022-08-27T11:17:33.226Z,35.93
2022-08-27T11:20:39.596Z,36.94
2022-08-27T11:23:10.663Z,37.03
2022-08-27T11:25:54.026Z,37.10
2022-08-27T11:28:30.051Z,36.99
2022-08-27T11:31:21.158Z,37.06
2022-08-27T11:34:04.358Z,36.78
2022-08-27T11:36:54.364Z,36.95
2022-08-27T11:39:47.568Z,37.15
2022-08-27T11:42:42.031Z,36.80
2022-08-27T11:45:21.946Z,37.14
2022-08-27T11:48:18.377Z,37.50
2022-08-27T11:51:22.758Z,37.10
2022-08-27T11:53:59.868Z,36.50
2022-08-27T11:56:30.189Z,36.80
2022-08-27T11:59:19.824Z,36.91
2022-08-27T12:01:48.859Z,36.60
2022-08-27T12:04:32.756Z,37.04
2022-08-27T12:07:25.164Z,36.80
2022-08-27T12:10:17.310Z,35.93
2022-08-27T12:13:30.091Z,36.05
2022-08-27T12:16:12.757Z,37.18
2022-08-27T12:19:13.716Z,36.26
2022-08-27T12:21:47.620Z,36.96
2022-08-27T12:24:39.766Z,36.70
2022-08-27T12:27:15.750Z,36.37
2022-08-27T12:29:52.512Z,36.90
2022-08-27T12:32:31.994Z,37.40
2022-08-27T12:35:05.757Z,37.56
2022-08-27T12:37:45.562Z,37.31
2022-08-27T12:40:41.338Z,37.86
2022-08-27T12:43:09.072Z,37.19
2022-08-27T12:45:44.413Z,37.82
2022-08-27T12:48:12.617Z,36.97
2022-08-27T12:50:40.449Z,36.89
2022-08-27T12:53:16.680Z,36.67
2022-08-27T12:56:26.550Z,36.31
2022-08-27T12:59:00.107Z,36.76
2022-08-27T13:01:28.413Z,36.80
2022-08-27T13:03:56.425Z,37.12
2022-08-27T13:06:26.851Z,36.90
2022-08-27T13:08:59.250Z,36.78
2022-08-27T13:11:30.422Z,37.58
2022-08-27T13:14:09.294Z,37.14
2022-08-27T13:16:39.982Z,37.33
2022-08-27T13:19:16.017Z,37.73
2022-08-27T13:21:48.150Z,37.95
2022-08-27T13:24:21.726Z,37.73
2022-08-27T13:26:53.567Z,37.80
2022-08-27T13:29:21.482Z,37.50
2022-08-27T13:31:52.311Z,37.07
2022-08-27T13:34:22.912Z,37.22
2022-08-27T13:37:02.536Z,36.52
2022-08-27T13:39:30.400Z,36.02
2022-08-27T13:41:59.983Z,35.53
2022-08-27T13:44:32.444Z,35.65
2022-08-27T13:47:05.550Z,36.16
2022-08-27T13:49:39.835Z,35.73
2022-08-27T13:52:23.924Z,35.85
2022-08-27T13:55:05.900Z,36.28
2022-08-27T13:57:46.972Z,36.36
2022-08-27T14:00:20.268Z,36.50
2022-08-27T14:02:56.137Z,36.29
2022-08-27T14:05:23.878Z,35.35
2022-08-27T14:07:55.053Z,35.29
2022-08-27T14:10:38.898Z,35.37
2022-08-27T14:13:07.927Z,35.50
2022-08-27T14:15:38.631Z,36.07
2022-08-27T14:18:28.980Z,35.47
2022-08-27T14:21:04.949Z,35.40
2022-08-27T14:23:32.816Z,36.28
2022-08-27T14:26:01.296Z,36.54
2022-08-27T14:28:29.087Z,35.69
2022-08-27T14:30:56.621Z,35.59
2022-08-27T14:33:24.254Z,35.42
2022-08-27T14:35:52.187Z,36.09
2022-08-27T14:38:22.775Z,35.56
2022-08-27T14:40:53.511Z,35.58
2022-08-27T14:43:22.978Z,35.31
2022-08-27T14:45:51.849Z,35.26
2022-08-27T14:48:30.592Z,35.74
2022-08-27T14:50:59.986Z,35.66
2022-08-27T14:53:27.475Z,36.70
2022-08-27T14:55:58.904Z,36.40
2022-08-27T14:58:26.788Z,36.76
2022-08-27T15:00:56.629Z,36.80
2022-08-27T15:03:25.624Z,36.58
2022-08-27T15:05:55.000Z,36.99
2022-08-27T15:08:27.602Z,36.21
2022-08-27T15:10:58.318Z,36.28
2022-08-27T15:13:25.802Z,36.28
2022-08-27T15:15:53.303Z,34.88
2022-08-27T15:18:21.040Z,34.83
2022-08-27T15:20:48.735Z,34.70
2022-08-27T15:23:16.558Z,34.33
2022-08-27T15:25:45.902Z,34.42
2022-08-27T15:28:13.745Z,34.18
2022-08-27T15:30:41.582Z,34.57
2022-08-27T15:33:09.541Z,34.30
2022-08-27T15:35:36.993Z,34.51
2022-08-27T15:38:04.736Z,34.24
2022-08-27T15:40:35.372Z,33.91
2022-08-27T15:43:05.612Z,34.24
2022-08-27T15:45:33.500Z,34.42
2022-08-27T15:48:01.520Z,34.89
2022-08-27T15:50:30.353Z,34.73
2022-08-27T15:53:02.240Z,34.99
2022-08-27T15:55:32.868Z,34.60
2022-08-27T15:58:01.055Z,34.52
2022-08-27T16:00:29.480Z,34.95
2022-08-27T16:02:57.483Z,34.92
2022-08-27T16:05:26.940Z,34.44
2022-08-27T16:07:54.426Z,34.18
2022-08-27T16:10:22.277Z,33.98
2022-08-27T16:12:49.866Z,34.08
2022-08-27T16:15:17.801Z,33.77
2022-08-27T16:17:45.907Z,33.62
2022-08-27T16:20:15.409Z,33.75
2022-08-27T16:22:46.652Z,33.57
2022-08-27T16:25:18.455Z,33.58
2022-08-27T16:27:47.996Z,33.43
2022-08-27T16:30:15.675Z,32.82
2022-08-27T16:32:47.285Z,33.07
2022-08-27T16:35:16.136Z,33.33
2022-08-27T16:37:44.314Z,33.36
2022-08-27T16:40:13.586Z,33.68
2022-08-27T16:42:46.769Z,33.66
2022-08-27T16:45:16.434Z,33.60
2022-08-27T16:48:02.506Z,33.23
2022-08-27T16:50:36.525Z,32.85
2022-08-27T16:53:34.641Z,32.42
2022-08-27T16:56:02.628Z,32.48
2022-08-27T16:58:31.418Z,32.38
2022-08-27T17:01:02.229Z,32.26
2022-08-27T17:03:44.120Z,32.33
2022-08-27T17:06:21.495Z,32.46
2022-08-27T17:08:50.637Z,31.78
2022-08-27T17:11:20.882Z,31.30
2022-08-27T17:13:49.961Z,32.09
2022-08-27T17:16:20.787Z,32.54
2022-08-27T17:18:49.653Z,32.35
2022-08-27T17:21:19.128Z,31.93
2022-08-27T17:23:51.938Z,31.98
2022-08-27T17:26:21.832Z,31.50
2022-08-27T17:28:49.604Z,30.99
2022-08-27T17:31:27.801Z,31.25
2022-08-27T17:33:59.455Z,30.88
2022-08-27T17:36:29.176Z,30.77
2022-08-27T17:38:57.766Z,30.54
2022-08-27T17:41:34.109Z,30.48
2022-08-27T17:44:09.097Z,30.94
2022-08-27T17:46:36.873Z,30.73
2022-08-27T17:49:04.849Z,30.38
2022-08-27T17:51:32.374Z,29.90
2022-08-27T17:54:01.407Z,29.75
2022-08-27T17:56:29.845Z,29.60
2022-08-27T17:58:57.659Z,29.81
2022-08-27T18:01:29.001Z,29.56
2022-08-27T18:03:57.870Z,29.68
2022-08-27T18:06:27.046Z,29.25
2022-08-27T18:08:54.556Z,29.25
2022-08-27T18:11:22.410Z,29.21
2022-08-27T18:13:54.186Z,29.34
2022-08-27T18:16:22.216Z,28.99
2022-08-27T18:18:49.994Z,28.85
2022-08-27T18:21:25.063Z,28.88
2022-08-27T18:23:54.264Z,28.21
2022-08-27T18:26:24.163Z,28.14
2022-08-27T18:28:51.587Z,28.01
2022-08-27T18:31:20.330Z,27.83
2022-08-27T18:33:47.975Z,27.68
2022-08-27T18:36:16.284Z,27.62
2022-08-27T18:38:47.021Z,27.47
2022-08-27T18:41:14.758Z,27.35
2022-08-27T18:43:42.580Z,27.43
2022-08-27T18:46:11.075Z,27.10
2022-08-27T18:48:38.748Z,27.35
2022-08-27T18:51:07.771Z,27.26
2022-08-27T18:53:39.872Z,27.35
2022-08-27T18:56:09.257Z,27.23
2022-08-27T18:58:38.861Z,27.34
2022-08-27T19:01:09.679Z,27.42
2022-08-27T19:03:44.597Z,27.32
2022-08-27T19:06:12.739Z,26.98
2022-08-27T19:08:40.695Z,26.85
2022-08-27T19:11:08.275Z,26.95
2022-08-27T19:13:36.450Z,26.99
2022-08-27T19:16:06.734Z,26.85
2022-08-27T19:18:35.882Z,26.99
2022-08-27T19:21:04.923Z,26.87
2022-08-27T19:23:32.400Z,26.95
2022-08-27T19:26:00.528Z,26.81
2022-08-27T19:28:39.815Z,26.94
2022-08-27T19:31:08.374Z,26.96
2022-08-27T19:33:36.160Z,27.19
2022-08-27T19:36:04.993Z,26.65
2022-08-27T19:38:33.061Z,26.97
2022-08-27T19:41:01.882Z,26.25
2022-08-27T19:43:29.454Z,26.26
2022-08-27T19:45:58.808Z,26.06
2022-08-27T19:48:26.650Z,26.23
2022-08-27T19:50:55.918Z,26.44
2022-08-27T19:53:24.212Z,26.56
2022-08-27T19:55:51.936Z,26.45
2022-08-27T19:58:20.198Z,26.27
2022-08-27T20:00:48.440Z,26.06
2022-08-27T20:03:16.684Z,26.17
2022-08-27T20:05:45.892Z,25.90
2022-08-27T20:08:13.510Z,26.01
2022-08-27T20:10:42.118Z,25.84
2022-08-27T20:13:09.724Z,25.81
2022-08-27T20:15:39.050Z,25.89
2022-08-27T20:18:09.005Z,25.68
2022-08-27T20:20:36.967Z,25.73
2022-08-27T20:23:05.340Z,25.76
2022-08-27T20:25:34.623Z,26.08
2022-08-27T20:28:16.413Z,26.20
2022-08-27T20:30:50.121Z,26.34
2022-08-27T20:33:17.980Z,26.79
2022-08-27T20:35:45.463Z,26.38
2022-08-27T20:38:13.329Z,26.26
2022-08-27T20:40:41.039Z,26.24
2022-08-27T20:43:08.616Z,25.46
2022-08-27T20:45:37.417Z,25.64
2022-08-27T20:48:05.177Z,25.40
2022-08-27T20:50:32.716Z,25.07
2022-08-27T20:53:00.893Z,25.39
2022-08-27T20:55:28.808Z,24.95
2022-08-27T20:58:15.523Z,24.76
2022-08-27T21:00:43.841Z,25.12
2022-08-27T21:03:13.959Z,24.89
2022-08-27T21:05:43.709Z,24.80
2022-08-27T21:08:12.111Z,24.53
2022-08-27T21:10:45.701Z,24.28
2022-08-27T21:13:14.078Z,23.84
2022-08-27T21:15:41.693Z,23.75
2022-08-27T21:18:09.319Z,24.14
2022-08-27T21:20:37.053Z,23.84
2022-08-27T21:23:04.434Z,24.17
2022-08-27T21:25:32.006Z,24.47
2022-08-27T21:28:00.966Z,24.18
2022-08-27T21:30:28.401Z,24.82
2022-08-27T21:32:56.207Z,24.83
2022-08-27T21:35:29.321Z,24.82
2022-08-27T21:37:58.208Z,24.84
2022-08-27T21:40:28.067Z,24.61
2022-08-27T21:42:57.439Z,24.50
2022-08-27T21:45:25.360Z,25.12
2022-08-27T21:47:54.163Z,25.62
2022-08-27T21:50:22.566Z,25.83
2022-08-27T21:52:50.623Z,25.70
2022-08-27T21:55:18.821Z,25.37
2022-08-27T21:57:46.234Z,24.63
2022-08-27T22:00:29.225Z,24.38
2022-08-27T22:02:57.317Z,24.31
2022-08-27T22:05:24.927Z,23.77
2022-08-27T22:07:52.336Z,23.74
2022-08-27T22:10:20.311Z,23.71
2022-08-27T22:12:47.816Z,23.85
2022-08-27T22:15:15.231Z,24.53
2022-08-27T22:17:42.941Z,24.93
2022-08-27T22:20:11.057Z,24.56
2022-08-27T22:22:38.903Z,24.78
2022-08-27T22:25:07.764Z,25.49
2022-08-27T22:27:35.329Z,25.48
2022-08-27T22:30:02.820Z,25.38
2022-08-27T22:32:30.818Z,25.05
2022-08-27T22:34:58.940Z,24.72
2022-08-27T22:37:26.687Z,24.55
2022-08-27T22:39:55.913Z,24.65
2022-08-27T22:42:23.558Z,24.44
2022-08-27T22:44:53.903Z,24.41
2022-08-27T22:47:21.513Z,24.17
2022-08-27T22:49:48.948Z,23.98
2022-08-27T22:52:21.291Z,23.88
2022-08-27T22:54:55.452Z,24.61
2022-08-27T22:57:23.258Z,24.51
2022-08-27T22:59:50.688Z,24.91
2022-08-27T23:02:18.725Z,24.93
2022-08-27T23:04:54.993Z,25.35
2022-08-27T23:07:24.724Z,25.17
2022-08-27T23:09:52.994Z,25.36
2022-08-27T23:12:20.572Z,25.54
2022-08-27T23:14:48.058Z,25.79
2022-08-27T23:17:16.212Z,25.23
2022-08-27T23:19:44.471Z,24.00
2022-08-27T23:22:11.942Z,25.19
2022-08-27T23:24:59.599Z,25.23
2022-08-27T23:27:29.874Z,25.18
2022-08-27T23:29:59.296Z,24.10
2022-08-27T23:32:27.397Z,22.75
2022-08-27T23:34:55.201Z,23.25
2022-08-27T23:37:23.967Z,23.04
2022-08-27T23:39:51.544Z,23.33
2022-08-27T23:42:19.703Z,23.89
2022-08-27T23:44:48.899Z,24.71
2022-08-27T23:47:16.998Z,25.33
2022-08-27T23:49:44.589Z,24.88
2022-08-27T23:52:12.964Z,24.61
2022-08-27T23:54:40.341Z,24.99
2022-08-27T23:57:07.844Z,25.08
2022-08-27T23:59:35.800Z,24.71
